sensor_id;sensor_type;location;lat;lon;timestamp;P1;durP1;ratioP1;P2;durP2;ratioP2
71148;SDS011;59072;42.144;25.200;2023-03-01T00:01:15;1.98;;;1.00;;
71148;SDS011;59072;42.144;25.200;2023-03-01T00:03:42;1.83;;;0.95;;
71148;SDS011;59072;42.144;25.200;2023-03-01T00:06:08;1.73;;;0.88;;
71148;SDS011;59072;42.144;25.200;2023-03-01T00:08:34;1.85;;;1.02;;
71148;SDS011;59072;42.144;25.200;2023-03-01T00:11:04;2.17;;;1.10;;
71148;SDS011;59072;42.144;25.200;2023-03-01T00:13:38;1.67;;;1.10;;
71148;SDS011;59072;42.144;25.200;2023-03-01T00:16:06;1.80;;;1.05;;
71148;SDS011;59072;42.144;25.200;2023-03-01T00:18:33;3.22;;;1.40;;
71148;SDS011;59072;42.144;25.200;2023-03-01T00:20:58;2.75;;;1.30;;
71148;SDS011;59072;42.144;25.200;2023-03-01T00:23:24;4.07;;;1.40;;
71148;SDS011;59072;42.144;25.200;2023-03-01T00:25:50;3.63;;;1.65;;
71148;SDS011;59072;42.144;25.200;2023-03-01T00:28:16;2.75;;;1.50;;
71148;SDS011;59072;42.144;25.200;2023-03-01T00:30:41;2.30;;;1.33;;
71148;SDS011;59072;42.144;25.200;2023-03-01T00:33:07;2.92;;;1.52;;
71148;SDS011;59072;42.144;25.200;2023-03-01T00:35:33;2.15;;;1.38;;
71148;SDS011;59072;42.144;25.200;2023-03-01T00:37:58;2.67;;;1.20;;
71148;SDS011;59072;42.144;25.200;2023-03-01T00:40:24;2.58;;;1.48;;
71148;SDS011;59072;42.144;25.200;2023-03-01T00:42:50;2.70;;;1.30;;
71148;SDS011;59072;42.144;25.200;2023-03-01T00:45:16;3.53;;;1.73;;
71148;SDS011;59072;42.144;25.200;2023-03-01T00:47:43;2.97;;;1.30;;
71148;SDS011;59072;42.144;25.200;2023-03-01T00:50:09;2.95;;;1.50;;
71148;SDS011;59072;42.144;25.200;2023-03-01T00:52:35;3.03;;;1.33;;
71148;SDS011;59072;42.144;25.200;2023-03-01T00:55:01;4.50;;;2.00;;
71148;SDS011;59072;42.144;25.200;2023-03-01T00:57:27;3.25;;;1.90;;
71148;SDS011;59072;42.144;25.200;2023-03-01T00:59:52;2.60;;;1.60;;
71148;SDS011;59072;42.144;25.200;2023-03-01T01:02:20;2.05;;;1.55;;
71148;SDS011;59072;42.144;25.200;2023-03-01T01:04:46;2.42;;;1.40;;
71148;SDS011;59072;42.144;25.200;2023-03-01T01:07:12;2.67;;;1.67;;
71148;SDS011;59072;42.144;25.200;2023-03-01T01:09:38;4.60;;;1.90;;
71148;SDS011;59072;42.144;25.200;2023-03-01T01:12:03;2.47;;;1.40;;
71148;SDS011;59072;42.144;25.200;2023-03-01T01:14:29;4.53;;;2.22;;
71148;SDS011;59072;42.144;25.200;2023-03-01T01:16:55;6.20;;;3.30;;
71148;SDS011;59072;42.144;25.200;2023-03-01T01:19:20;5.38;;;2.78;;
71148;SDS011;59072;42.144;25.200;2023-03-01T01:21:46;6.25;;;2.90;;
71148;SDS011;59072;42.144;25.200;2023-03-01T01:24:13;4.57;;;2.20;;
71148;SDS011;59072;42.144;25.200;2023-03-01T01:26:39;8.10;;;3.30;;
71148;SDS011;59072;42.144;25.200;2023-03-01T01:29:04;12.25;;;4.15;;
71148;SDS011;59072;42.144;25.200;2023-03-01T01:31:31;10.48;;;3.78;;
71148;SDS011;59072;42.144;25.200;2023-03-01T01:33:59;11.65;;;4.95;;
71148;SDS011;59072;42.144;25.200;2023-03-01T01:36:25;8.48;;;3.35;;
71148;SDS011;59072;42.144;25.200;2023-03-01T01:38:51;10.52;;;3.45;;
71148;SDS011;59072;42.144;25.200;2023-03-01T01:41:17;11.55;;;3.72;;
71148;SDS011;59072;42.144;25.200;2023-03-01T01:43:45;14.23;;;4.53;;
71148;SDS011;59072;42.144;25.200;2023-03-01T01:48:48;12.27;;;4.78;;
71148;SDS011;59072;42.144;25.200;2023-03-01T01:51:19;11.13;;;4.82;;
71148;SDS011;59072;42.144;25.200;2023-03-01T01:53:51;4.60;;;2.75;;
71148;SDS011;59072;42.144;25.200;2023-03-01T01:56:22;5.20;;;2.58;;
71148;SDS011;59072;42.144;25.200;2023-03-01T01:58:52;3.50;;;2.25;;
71148;SDS011;59072;42.144;25.200;2023-03-01T02:01:19;4.38;;;2.60;;
71148;SDS011;59072;42.144;25.200;2023-03-01T02:03:44;5.55;;;2.83;;
71148;SDS011;59072;42.144;25.200;2023-03-01T02:06:17;4.80;;;2.53;;
71148;SDS011;59072;42.144;25.200;2023-03-01T02:08:54;5.00;;;2.50;;
71148;SDS011;59072;42.144;25.200;2023-03-01T02:11:24;3.83;;;2.10;;
71148;SDS011;59072;42.144;25.200;2023-03-01T02:13:51;2.88;;;1.88;;
71148;SDS011;59072;42.144;25.200;2023-03-01T02:16:18;3.03;;;1.73;;
71148;SDS011;59072;42.144;25.200;2023-03-01T02:18:44;2.55;;;1.50;;
71148;SDS011;59072;42.144;25.200;2023-03-01T02:23:44;3.80;;;1.80;;
71148;SDS011;59072;42.144;25.200;2023-03-01T02:26:56;3.75;;;1.85;;
71148;SDS011;59072;42.144;25.200;2023-03-01T02:29:05;2.83;;;1.77;;
71148;SDS011;59072;42.144;25.200;2023-03-01T02:31:31;3.90;;;1.80;;
71148;SDS011;59072;42.144;25.200;2023-03-01T02:34:17;2.95;;;1.95;;
71148;SDS011;59072;42.144;25.200;2023-03-01T02:37:08;3.38;;;1.70;;
71148;SDS011;59072;42.144;25.200;2023-03-01T02:39:42;3.55;;;1.92;;
71148;SDS011;59072;42.144;25.200;2023-03-01T02:42:16;3.53;;;2.10;;
71148;SDS011;59072;42.144;25.200;2023-03-01T02:44:48;3.35;;;1.70;;
71148;SDS011;59072;42.144;25.200;2023-03-01T02:47:14;5.88;;;4.72;;
71148;SDS011;59072;42.144;25.200;2023-03-01T02:49:41;21.45;;;19.42;;
71148;SDS011;59072;42.144;25.200;2023-03-01T02:59:48;62.95;;;45.08;;
71148;SDS011;59072;42.144;25.200;2023-03-01T03:07:31;15.77;;;11.75;;
71148;SDS011;59072;42.144;25.200;2023-03-01T03:09:59;7.88;;;6.47;;
71148;SDS011;59072;42.144;25.200;2023-03-01T03:12:25;6.38;;;4.93;;
71148;SDS011;59072;42.144;25.200;2023-03-01T03:14:51;10.40;;;8.82;;
71148;SDS011;59072;42.144;25.200;2023-03-01T03:17:16;7.70;;;6.07;;
71148;SDS011;59072;42.144;25.200;2023-03-01T03:19:42;11.43;;;7.95;;
71148;SDS011;59072;42.144;25.200;2023-03-01T03:22:10;8.45;;;5.65;;
71148;SDS011;59072;42.144;25.200;2023-03-01T03:24:36;3.63;;;2.30;;
71148;SDS011;59072;42.144;25.200;2023-03-01T03:27:03;5.80;;;4.00;;
71148;SDS011;59072;42.144;25.200;2023-03-01T03:29:29;8.15;;;6.20;;
71148;SDS011;59072;42.144;25.200;2023-03-01T03:31:55;6.55;;;5.20;;
71148;SDS011;59072;42.144;25.200;2023-03-01T03:34:20;8.43;;;6.55;;
71148;SDS011;59072;42.144;25.200;2023-03-01T03:36:46;11.02;;;10.00;;
71148;SDS011;59072;42.144;25.200;2023-03-01T03:39:11;5.38;;;3.40;;
71148;SDS011;59072;42.144;25.200;2023-03-01T03:41:37;3.63;;;1.90;;
71148;SDS011;59072;42.144;25.200;2023-03-01T03:44:02;5.50;;;3.33;;
71148;SDS011;59072;42.144;25.200;2023-03-01T03:46:28;6.07;;;3.28;;
71148;SDS011;59072;42.144;25.200;2023-03-01T03:48:53;7.43;;;5.57;;
71148;SDS011;59072;42.144;25.200;2023-03-01T03:51:18;22.73;;;12.07;;
71148;SDS011;59072;42.144;25.200;2023-03-01T03:53:44;20.77;;;11.80;;
71148;SDS011;59072;42.144;25.200;2023-03-01T03:56:10;8.02;;;4.22;;
71148;SDS011;59072;42.144;25.200;2023-03-01T04:01:21;17.70;;;11.00;;
71148;SDS011;59072;42.144;25.200;2023-03-01T04:03:46;119.50;;;63.35;;
71148;SDS011;59072;42.144;25.200;2023-03-01T04:06:12;28.90;;;17.33;;
71148;SDS011;59072;42.144;25.200;2023-03-01T04:08:40;23.92;;;12.70;;
71148;SDS011;59072;42.144;25.200;2023-03-01T04:11:06;8.20;;;4.57;;
71148;SDS011;59072;42.144;25.200;2023-03-01T04:13:50;67.85;;;41.47;;
71148;SDS011;59072;42.144;25.200;2023-03-01T04:16:18;19.50;;;11.20;;
71148;SDS011;59072;42.144;25.200;2023-03-01T04:18:44;10.85;;;7.32;;
71148;SDS011;59072;42.144;25.200;2023-03-01T04:21:09;31.63;;;19.30;;
71148;SDS011;59072;42.144;25.200;2023-03-01T04:23:36;23.55;;;14.43;;
71148;SDS011;59072;42.144;25.200;2023-03-01T04:26:02;31.50;;;19.15;;
71148;SDS011;59072;42.144;25.200;2023-03-01T04:28:35;48.55;;;29.73;;
71148;SDS011;59072;42.144;25.200;2023-03-01T04:31:08;29.63;;;18.55;;
71148;SDS011;59072;42.144;25.200;2023-03-01T04:33:41;60.80;;;30.70;;
71148;SDS011;59072;42.144;25.200;2023-03-01T04:36:19;25.50;;;14.57;;
71148;SDS011;59072;42.144;25.200;2023-03-01T04:41:14;54.78;;;30.27;;
71148;SDS011;59072;42.144;25.200;2023-03-01T04:43:41;21.67;;;13.63;;
71148;SDS011;59072;42.144;25.200;2023-03-01T04:46:13;27.15;;;15.18;;
71148;SDS011;59072;42.144;25.200;2023-03-01T04:48:42;17.38;;;9.80;;
71148;SDS011;59072;42.144;25.200;2023-03-01T04:51:09;7.30;;;4.13;;
71148;SDS011;59072;42.144;25.200;2023-03-01T04:53:38;30.50;;;16.45;;
71148;SDS011;59072;42.144;25.200;2023-03-01T04:56:04;6.32;;;3.05;;
71148;SDS011;59072;42.144;25.200;2023-03-01T04:58:31;5.07;;;2.38;;
71148;SDS011;59072;42.144;25.200;2023-03-01T05:00:57;2.75;;;1.70;;
71148;SDS011;59072;42.144;25.200;2023-03-01T05:03:22;5.30;;;2.60;;
71148;SDS011;59072;42.144;25.200;2023-03-01T05:05:49;3.47;;;1.98;;
71148;SDS011;59072;42.144;25.200;2023-03-01T05:08:16;3.38;;;2.00;;
71148;SDS011;59072;42.144;25.200;2023-03-01T05:10:47;3.90;;;1.95;;
71148;SDS011;59072;42.144;25.200;2023-03-01T05:13:14;7.15;;;2.30;;
71148;SDS011;59072;42.144;25.200;2023-03-01T05:15:56;4.50;;;2.55;;
71148;SDS011;59072;42.144;25.200;2023-03-01T05:18:24;5.75;;;3.15;;
71148;SDS011;59072;42.144;25.200;2023-03-01T05:20:52;6.60;;;2.35;;
71148;SDS011;59072;42.144;25.200;2023-03-01T05:23:23;4.38;;;2.65;;
71148;SDS011;59072;42.144;25.200;2023-03-01T05:25:49;5.85;;;2.72;;
71148;SDS011;59072;42.144;25.200;2023-03-01T05:28:17;5.63;;;2.95;;
71148;SDS011;59072;42.144;25.200;2023-03-01T05:30:43;6.10;;;2.58;;
71148;SDS011;59072;42.144;25.200;2023-03-01T05:33:09;4.93;;;2.75;;
71148;SDS011;59072;42.144;25.200;2023-03-01T05:35:38;5.80;;;3.22;;
71148;SDS011;59072;42.144;25.200;2023-03-01T05:38:06;5.20;;;3.15;;
71148;SDS011;59072;42.144;25.200;2023-03-01T05:40:32;6.72;;;3.95;;
71148;SDS011;59072;42.144;25.200;2023-03-01T05:42:59;8.52;;;4.40;;
71148;SDS011;59072;42.144;25.200;2023-03-01T05:45:25;7.43;;;4.68;;
71148;SDS011;59072;42.144;25.200;2023-03-01T05:47:52;6.90;;;3.83;;
71148;SDS011;59072;42.144;25.200;2023-03-01T05:50:21;6.57;;;3.60;;
71148;SDS011;59072;42.144;25.200;2023-03-01T05:52:59;20.40;;;9.75;;
71148;SDS011;59072;42.144;25.200;2023-03-01T05:55:30;40.63;;;18.60;;
71148;SDS011;59072;42.144;25.200;2023-03-01T05:58:00;6.07;;;3.55;;
71148;SDS011;59072;42.144;25.200;2023-03-01T06:00:28;43.72;;;22.75;;
71148;SDS011;59072;42.144;25.200;2023-03-01T06:02:54;32.10;;;15.90;;
71148;SDS011;59072;42.144;25.200;2023-03-01T06:05:21;9.57;;;5.20;;
71148;SDS011;59072;42.144;25.200;2023-03-01T06:07:47;7.03;;;5.07;;
71148;SDS011;59072;42.144;25.200;2023-03-01T06:10:13;14.68;;;10.88;;
71148;SDS011;59072;42.144;25.200;2023-03-01T06:12:40;7.57;;;4.32;;
71148;SDS011;59072;42.144;25.200;2023-03-01T06:15:06;8.20;;;4.53;;
71148;SDS011;59072;42.144;25.200;2023-03-01T06:20:03;7.53;;;4.47;;
71148;SDS011;59072;42.144;25.200;2023-03-01T06:22:33;6.75;;;4.22;;
71148;SDS011;59072;42.144;25.200;2023-03-01T06:24:59;7.45;;;4.20;;
71148;SDS011;59072;42.144;25.200;2023-03-01T06:27:24;7.93;;;4.53;;
71148;SDS011;59072;42.144;25.200;2023-03-01T06:29:50;8.52;;;4.72;;
71148;SDS011;59072;42.144;25.200;2023-03-01T06:32:15;17.33;;;7.22;;
71148;SDS011;59072;42.144;25.200;2023-03-01T06:34:41;13.35;;;7.60;;
71148;SDS011;59072;42.144;25.200;2023-03-01T06:37:07;14.77;;;8.05;;
71148;SDS011;59072;42.144;25.200;2023-03-01T06:39:32;12.70;;;5.53;;
71148;SDS011;59072;42.144;25.200;2023-03-01T06:41:58;26.30;;;15.07;;
71148;SDS011;59072;42.144;25.200;2023-03-01T06:44:23;33.38;;;23.65;;
71148;SDS011;59072;42.144;25.200;2023-03-01T06:46:49;23.13;;;13.50;;
71148;SDS011;59072;42.144;25.200;2023-03-01T06:49:15;38.40;;;29.95;;
71148;SDS011;59072;42.144;25.200;2023-03-01T06:51:41;6.60;;;4.20;;
71148;SDS011;59072;42.144;25.200;2023-03-01T06:54:07;7.85;;;4.88;;
71148;SDS011;59072;42.144;25.200;2023-03-01T06:56:32;32.08;;;22.30;;
71148;SDS011;59072;42.144;25.200;2023-03-01T06:58:58;14.93;;;10.60;;
71148;SDS011;59072;42.144;25.200;2023-03-01T07:01:24;23.33;;;14.25;;
71148;SDS011;59072;42.144;25.200;2023-03-01T07:03:50;11.57;;;6.95;;
71148;SDS011;59072;42.144;25.200;2023-03-01T07:06:15;54.85;;;36.22;;
71148;SDS011;59072;42.144;25.200;2023-03-01T07:08:44;6.38;;;3.63;;
71148;SDS011;59072;42.144;25.200;2023-03-01T07:11:09;48.78;;;28.85;;
71148;SDS011;59072;42.144;25.200;2023-03-01T07:13:35;19.88;;;12.85;;
71148;SDS011;59072;42.144;25.200;2023-03-01T07:16:00;26.35;;;15.70;;
71148;SDS011;59072;42.144;25.200;2023-03-01T07:18:26;21.08;;;13.75;;
71148;SDS011;59072;42.144;25.200;2023-03-01T07:20:51;12.77;;;7.13;;
71148;SDS011;59072;42.144;25.200;2023-03-01T07:23:17;48.45;;;24.27;;
71148;SDS011;59072;42.144;25.200;2023-03-01T07:25:42;212.55;;;87.20;;
71148;SDS011;59072;42.144;25.200;2023-03-01T07:28:08;220.35;;;93.65;;
71148;SDS011;59072;42.144;25.200;2023-03-01T07:30:33;49.95;;;29.92;;
71148;SDS011;59072;42.144;25.200;2023-03-01T07:32:58;54.30;;;26.95;;
71148;SDS011;59072;42.144;25.200;2023-03-01T07:35:27;11.40;;;7.47;;
71148;SDS011;59072;42.144;25.200;2023-03-01T07:37:53;62.55;;;32.25;;
71148;SDS011;59072;42.144;25.200;2023-03-01T07:40:18;102.05;;;46.90;;
71148;SDS011;59072;42.144;25.200;2023-03-01T07:42:44;47.63;;;22.63;;
71148;SDS011;59072;42.144;25.200;2023-03-01T07:45:12;43.03;;;21.30;;
71148;SDS011;59072;42.144;25.200;2023-03-01T07:47:38;33.78;;;19.02;;
71148;SDS011;59072;42.144;25.200;2023-03-01T07:50:04;53.60;;;26.98;;
71148;SDS011;59072;42.144;25.200;2023-03-01T07:52:30;19.85;;;10.63;;
71148;SDS011;59072;42.144;25.200;2023-03-01T07:54:56;73.10;;;36.50;;
71148;SDS011;59072;42.144;25.200;2023-03-01T07:57:22;115.55;;;55.20;;
71148;SDS011;59072;42.144;25.200;2023-03-01T07:59:47;103.00;;;50.28;;
71148;SDS011;59072;42.144;25.200;2023-03-01T08:02:13;70.78;;;36.70;;
71148;SDS011;59072;42.144;25.200;2023-03-01T08:04:40;91.20;;;47.10;;
71148;SDS011;59072;42.144;25.200;2023-03-01T08:07:06;98.65;;;47.20;;
71148;SDS011;59072;42.144;25.200;2023-03-01T08:09:31;68.55;;;34.63;;
71148;SDS011;59072;42.144;25.200;2023-03-01T08:12:00;50.28;;;27.20;;
71148;SDS011;59072;42.144;25.200;2023-03-01T08:14:26;101.22;;;49.38;;
71148;SDS011;59072;42.144;25.200;2023-03-01T08:16:51;212.40;;;101.70;;
71148;SDS011;59072;42.144;25.200;2023-03-01T08:19:16;115.13;;;53.28;;
71148;SDS011;59072;42.144;25.200;2023-03-01T08:21:42;75.88;;;37.95;;
71148;SDS011;59072;42.144;25.200;2023-03-01T08:24:10;66.00;;;32.57;;
71148;SDS011;59072;42.144;25.200;2023-03-01T08:26:35;50.47;;;26.27;;
71148;SDS011;59072;42.144;25.200;2023-03-01T08:29:01;118.60;;;51.15;;
71148;SDS011;59072;42.144;25.200;2023-03-01T08:31:32;71.82;;;38.05;;
71148;SDS011;59072;42.144;25.200;2023-03-01T08:34:04;137.07;;;72.63;;
71148;SDS011;59072;42.144;25.200;2023-03-01T08:38:58;160.68;;;69.55;;
71148;SDS011;59072;42.144;25.200;2023-03-01T08:41:24;109.28;;;49.45;;
71148;SDS011;59072;42.144;25.200;2023-03-01T08:43:50;63.03;;;32.15;;
71148;SDS011;59072;42.144;25.200;2023-03-01T08:46:15;25.00;;;12.00;;
71148;SDS011;59072;42.144;25.200;2023-03-01T08:48:41;26.77;;;19.05;;
71148;SDS011;59072;42.144;25.200;2023-03-01T08:51:14;48.80;;;34.45;;
71148;SDS011;59072;42.144;25.200;2023-03-01T08:53:42;49.10;;;24.98;;
71148;SDS011;59072;42.144;25.200;2023-03-01T08:56:08;47.83;;;22.73;;
71148;SDS011;59072;42.144;25.200;2023-03-01T08:58:34;54.03;;;22.77;;
71148;SDS011;59072;42.144;25.200;2023-03-01T09:01:00;113.28;;;45.03;;
71148;SDS011;59072;42.144;25.200;2023-03-01T09:03:31;74.20;;;30.88;;
71148;SDS011;59072;42.144;25.200;2023-03-01T09:05:59;37.40;;;17.08;;
71148;SDS011;59072;42.144;25.200;2023-03-01T09:08:25;222.13;;;97.18;;
71148;SDS011;59072;42.144;25.200;2023-03-01T09:10:51;95.75;;;42.80;;
71148;SDS011;59072;42.144;25.200;2023-03-01T09:13:17;38.97;;;22.65;;
71148;SDS011;59072;42.144;25.200;2023-03-01T09:15:42;15.48;;;10.60;;
71148;SDS011;59072;42.144;25.200;2023-03-01T09:18:07;15.88;;;11.32;;
71148;SDS011;59072;42.144;25.200;2023-03-01T09:20:33;14.38;;;10.43;;
71148;SDS011;59072;42.144;25.200;2023-03-01T09:22:58;26.13;;;23.40;;
71148;SDS011;59072;42.144;25.200;2023-03-01T09:25:24;15.30;;;9.73;;
71148;SDS011;59072;42.144;25.200;2023-03-01T09:27:53;11.50;;;8.20;;
71148;SDS011;59072;42.144;25.200;2023-03-01T09:30:19;15.30;;;9.65;;
71148;SDS011;59072;42.144;25.200;2023-03-01T09:32:45;13.35;;;9.43;;
71148;SDS011;59072;42.144;25.200;2023-03-01T09:35:11;11.57;;;5.60;;
71148;SDS011;59072;42.144;25.200;2023-03-01T09:37:37;8.65;;;4.75;;
71148;SDS011;59072;42.144;25.200;2023-03-01T09:40:05;9.48;;;4.50;;
71148;SDS011;59072;42.144;25.200;2023-03-01T09:42:32;9.50;;;4.07;;
71148;SDS011;59072;42.144;25.200;2023-03-01T09:45:02;10.30;;;5.18;;
71148;SDS011;59072;42.144;25.200;2023-03-01T09:47:32;8.13;;;3.80;;
71148;SDS011;59072;42.144;25.200;2023-03-01T09:50:02;11.60;;;5.20;;
71148;SDS011;59072;42.144;25.200;2023-03-01T10:01:02;11.65;;;4.88;;
71148;SDS011;59072;42.144;25.200;2023-03-01T10:03:56;61.35;;;27.65;;
71148;SDS011;59072;42.144;25.200;2023-03-01T10:06:24;149.43;;;49.70;;
71148;SDS011;59072;42.144;25.200;2023-03-01T10:09:10;183.73;;;61.22;;
71148;SDS011;59072;42.144;25.200;2023-03-01T10:11:41;18.90;;;7.55;;
71148;SDS011;59072;42.144;25.200;2023-03-01T10:19:46;55.38;;;22.33;;
71148;SDS011;59072;42.144;25.200;2023-03-01T10:24:43;78.78;;;27.92;;
71148;SDS011;59072;42.144;25.200;2023-03-01T10:32:31;31.92;;;17.50;;
71148;SDS011;59072;42.144;25.200;2023-03-01T10:34:57;36.35;;;20.45;;
71148;SDS011;59072;42.144;25.200;2023-03-01T10:37:23;25.42;;;14.93;;
71148;SDS011;59072;42.144;25.200;2023-03-01T10:39:58;39.78;;;22.17;;
71148;SDS011;59072;42.144;25.200;2023-03-01T10:42:57;22.98;;;12.43;;
71148;SDS011;59072;42.144;25.200;2023-03-01T10:48:11;13.80;;;8.55;;
71148;SDS011;59072;42.144;25.200;2023-03-01T10:50:46;107.93;;;45.50;;
71148;SDS011;59072;42.144;25.200;2023-03-01T10:53:27;13.85;;;10.02;;
71148;SDS011;59072;42.144;25.200;2023-03-01T10:56:03;15.85;;;12.10;;
71148;SDS011;59072;42.144;25.200;2023-03-01T10:58:29;11.98;;;8.95;;
71148;SDS011;59072;42.144;25.200;2023-03-01T11:00:57;17.98;;;12.38;;
71148;SDS011;59072;42.144;25.200;2023-03-01T11:08:46;16.70;;;13.98;;
71148;SDS011;59072;42.144;25.200;2023-03-01T11:13:54;13.80;;;8.60;;
71148;SDS011;59072;42.144;25.200;2023-03-01T11:16:58;16.45;;;10.15;;
71148;SDS011;59072;42.144;25.200;2023-03-01T11:19:17;17.35;;;12.80;;
71148;SDS011;59072;42.144;25.200;2023-03-01T11:24:19;15.82;;;10.90;;
71148;SDS011;59072;42.144;25.200;2023-03-01T11:26:52;13.75;;;9.10;;
71148;SDS011;59072;42.144;25.200;2023-03-01T11:29:26;15.77;;;11.05;;
71148;SDS011;59072;42.144;25.200;2023-03-01T11:31:57;14.48;;;9.18;;
71148;SDS011;59072;42.144;25.200;2023-03-01T11:34:38;11.05;;;7.25;;
71148;SDS011;59072;42.144;25.200;2023-03-01T11:37:51;9.57;;;5.97;;
71148;SDS011;59072;42.144;25.200;2023-03-01T11:40:04;8.90;;;5.45;;
71148;SDS011;59072;42.144;25.200;2023-03-01T11:45:58;10.75;;;6.43;;
71148;SDS011;59072;42.144;25.200;2023-03-01T11:56:55;9.45;;;4.57;;
71148;SDS011;59072;42.144;25.200;2023-03-01T12:05:05;18.95;;;12.45;;
71148;SDS011;59072;42.144;25.200;2023-03-01T12:07:52;24.73;;;13.45;;
71148;SDS011;59072;42.144;25.200;2023-03-01T12:21:27;10.20;;;5.13;;
71148;SDS011;59072;42.144;25.200;2023-03-01T12:43:22;11.82;;;7.35;;
71148;SDS011;59072;42.144;25.200;2023-03-01T12:50:52;10.32;;;5.90;;
71148;SDS011;59072;42.144;25.200;2023-03-01T12:55:50;12.45;;;6.45;;
71148;SDS011;59072;42.144;25.200;2023-03-01T13:04:03;16.27;;;10.27;;
71148;SDS011;59072;42.144;25.200;2023-03-01T13:07:02;16.77;;;9.25;;
71148;SDS011;59072;42.144;25.200;2023-03-01T13:16:50;19.63;;;10.43;;
71148;SDS011;59072;42.144;25.200;2023-03-01T13:19:26;11.60;;;6.50;;
71148;SDS011;59072;42.144;25.200;2023-03-01T13:21:57;14.15;;;7.55;;
71148;SDS011;59072;42.144;25.200;2023-03-01T13:24:27;13.50;;;7.85;;
71148;SDS011;59072;42.144;25.200;2023-03-01T13:27:08;14.10;;;7.78;;
71148;SDS011;59072;42.144;25.200;2023-03-01T13:32:24;14.48;;;7.45;;
71148;SDS011;59072;42.144;25.200;2023-03-01T13:37:42;16.08;;;7.75;;
71148;SDS011;59072;42.144;25.200;2023-03-01T13:42:42;34.10;;;26.27;;
71148;SDS011;59072;42.144;25.200;2023-03-01T13:45:15;17.13;;;9.15;;
71148;SDS011;59072;42.144;25.200;2023-03-01T13:48:03;28.95;;;22.20;;
71148;SDS011;59072;42.144;25.200;2023-03-01T13:51:00;32.80;;;26.45;;
71148;SDS011;59072;42.144;25.200;2023-03-01T13:53:36;37.50;;;27.27;;
71148;SDS011;59072;42.144;25.200;2023-03-01T13:56:08;47.15;;;38.17;;
71148;SDS011;59072;42.144;25.200;2023-03-01T14:01:31;23.60;;;15.00;;
71148;SDS011;59072;42.144;25.200;2023-03-01T14:03:58;15.13;;;9.68;;
71148;SDS011;59072;42.144;25.200;2023-03-01T14:06:28;19.90;;;12.88;;
71148;SDS011;59072;42.144;25.200;2023-03-01T14:09:08;17.67;;;12.15;;
71148;SDS011;59072;42.144;25.200;2023-03-01T14:11:50;18.15;;;10.52;;
71148;SDS011;59072;42.144;25.200;2023-03-01T14:20:00;17.60;;;10.43;;
71148;SDS011;59072;42.144;25.200;2023-03-01T14:22:34;19.15;;;11.02;;
71148;SDS011;59072;42.144;25.200;2023-03-01T14:25:03;22.42;;;16.67;;
71148;SDS011;59072;42.144;25.200;2023-03-01T14:27:39;19.45;;;13.50;;
71148;SDS011;59072;42.144;25.200;2023-03-01T14:30:18;17.58;;;11.30;;
71148;SDS011;59072;42.144;25.200;2023-03-01T14:32:53;16.50;;;8.87;;
71148;SDS011;59072;42.144;25.200;2023-03-01T14:35:22;22.52;;;15.43;;
71148;SDS011;59072;42.144;25.200;2023-03-01T14:37:49;24.73;;;12.82;;
71148;SDS011;59072;42.144;25.200;2023-03-01T14:40:48;74.32;;;42.17;;
71148;SDS011;59072;42.144;25.200;2023-03-01T14:43:11;63.22;;;34.90;;
71148;SDS011;59072;42.144;25.200;2023-03-01T14:45:46;36.70;;;22.13;;
71148;SDS011;59072;42.144;25.200;2023-03-01T14:48:15;18.45;;;9.88;;
71148;SDS011;59072;42.144;25.200;2023-03-01T14:50:42;47.22;;;23.30;;
71148;SDS011;59072;42.144;25.200;2023-03-01T14:53:28;31.70;;;21.93;;
71148;SDS011;59072;42.144;25.200;2023-03-01T14:55:56;54.00;;;32.72;;
71148;SDS011;59072;42.144;25.200;2023-03-01T14:58:31;20.05;;;13.85;;
71148;SDS011;59072;42.144;25.200;2023-03-01T15:00:59;17.30;;;9.85;;
71148;SDS011;59072;42.144;25.200;2023-03-01T15:03:32;17.40;;;10.07;;
71148;SDS011;59072;42.144;25.200;2023-03-01T15:06:02;31.27;;;15.90;;
71148;SDS011;59072;42.144;25.200;2023-03-01T15:08:29;26.70;;;16.08;;
71148;SDS011;59072;42.144;25.200;2023-03-01T15:13:38;30.15;;;16.05;;
71148;SDS011;59072;42.144;25.200;2023-03-01T15:18:33;17.50;;;9.38;;
71148;SDS011;59072;42.144;25.200;2023-03-01T15:21:05;15.00;;;9.45;;
71148;SDS011;59072;42.144;25.200;2023-03-01T15:23:32;12.18;;;7.00;;
71148;SDS011;59072;42.144;25.200;2023-03-01T15:25:59;14.65;;;7.20;;
71148;SDS011;59072;42.144;25.200;2023-03-01T15:28:31;16.20;;;9.35;;
71148;SDS011;59072;42.144;25.200;2023-03-01T15:31:19;18.40;;;13.38;;
71148;SDS011;59072;42.144;25.200;2023-03-01T15:34:07;28.05;;;19.85;;
71148;SDS011;59072;42.144;25.200;2023-03-01T15:36:46;25.05;;;15.27;;
71148;SDS011;59072;42.144;25.200;2023-03-01T15:41:55;15.52;;;9.38;;
71148;SDS011;59072;42.144;25.200;2023-03-01T15:44:27;16.60;;;9.27;;
71148;SDS011;59072;42.144;25.200;2023-03-01T15:46:55;19.58;;;11.32;;
71148;SDS011;59072;42.144;25.200;2023-03-01T15:49:54;16.83;;;12.10;;
71148;SDS011;59072;42.144;25.200;2023-03-01T15:52:24;20.05;;;12.52;;
71148;SDS011;59072;42.144;25.200;2023-03-01T15:55:01;19.95;;;13.68;;
71148;SDS011;59072;42.144;25.200;2023-03-01T15:57:29;16.52;;;11.50;;
71148;SDS011;59072;42.144;25.200;2023-03-01T15:59:54;19.83;;;14.25;;
71148;SDS011;59072;42.144;25.200;2023-03-01T16:02:20;16.73;;;11.18;;
71148;SDS011;59072;42.144;25.200;2023-03-01T16:04:48;15.07;;;9.50;;
71148;SDS011;59072;42.144;25.200;2023-03-01T16:07:16;27.33;;;18.17;;
71148;SDS011;59072;42.144;25.200;2023-03-01T16:09:42;32.17;;;17.40;;
71148;SDS011;59072;42.144;25.200;2023-03-01T16:12:14;18.63;;;11.38;;
71148;SDS011;59072;42.144;25.200;2023-03-01T16:14:41;19.83;;;12.20;;
71148;SDS011;59072;42.144;25.200;2023-03-01T16:17:13;19.98;;;12.85;;
71148;SDS011;59072;42.144;25.200;2023-03-01T16:19:40;20.40;;;13.75;;
71148;SDS011;59072;42.144;25.200;2023-03-01T16:22:06;18.42;;;13.07;;
71148;SDS011;59072;42.144;25.200;2023-03-01T16:24:32;15.80;;;10.52;;
71148;SDS011;59072;42.144;25.200;2023-03-01T16:26:57;19.77;;;11.70;;
71148;SDS011;59072;42.144;25.200;2023-03-01T16:29:23;129.95;;;73.97;;
71148;SDS011;59072;42.144;25.200;2023-03-01T16:31:48;131.60;;;74.03;;
71148;SDS011;59072;42.144;25.200;2023-03-01T16:34:13;130.30;;;72.22;;
71148;SDS011;59072;42.144;25.200;2023-03-01T16:36:39;32.30;;;18.33;;
71148;SDS011;59072;42.144;25.200;2023-03-01T16:39:07;103.47;;;55.67;;
71148;SDS011;59072;42.144;25.200;2023-03-01T16:41:34;130.40;;;74.60;;
71148;SDS011;59072;42.144;25.200;2023-03-01T16:43:59;73.70;;;40.20;;
71148;SDS011;59072;42.144;25.200;2023-03-01T16:46:25;69.90;;;39.92;;
71148;SDS011;59072;42.144;25.200;2023-03-01T16:48:53;80.10;;;44.50;;
71148;SDS011;59072;42.144;25.200;2023-03-01T16:51:19;133.73;;;74.72;;
71148;SDS011;59072;42.144;25.200;2023-03-01T16:53:45;140.70;;;71.25;;
71148;SDS011;59072;42.144;25.200;2023-03-01T16:56:11;91.38;;;50.67;;
71148;SDS011;59072;42.144;25.200;2023-03-01T16:58:38;105.22;;;58.85;;
71148;SDS011;59072;42.144;25.200;2023-03-01T17:01:05;110.38;;;53.83;;
71148;SDS011;59072;42.144;25.200;2023-03-01T17:03:32;66.22;;;34.67;;
71148;SDS011;59072;42.144;25.200;2023-03-01T17:06:02;105.05;;;53.45;;